createdAt,value
2018-12-23T00:00:16.046Z,1.57
2018-12-23T00:02:43.646Z,0.90
2018-12-23T00:05:11.604Z,1.00
2018-12-23T00:07:39.681Z,1.10
2018-12-23T00:10:07.926Z,1.17
2018-12-23T00:12:35.381Z,1.20
2018-12-23T00:15:02.929Z,0.72
2018-12-23T00:17:30.373Z,0.87
2018-12-23T00:19:57.837Z,0.87
2018-12-23T00:22:25.279Z,0.70
2018-12-23T00:24:52.737Z,1.07
2018-12-23T00:27:20.177Z,0.93
2018-12-23T00:29:47.636Z,0.80
2018-12-23T00:32:15.084Z,0.82
2018-12-23T00:34:42.536Z,1.07
2018-12-23T00:37:09.989Z,1.10
2018-12-23T00:39:37.439Z,0.70
2018-12-23T00:42:04.902Z,0.90
2018-12-23T00:44:32.363Z,0.70
2018-12-23T00:46:59.809Z,0.83
2018-12-23T00:49:27.245Z,0.70
2018-12-23T00:51:54.690Z,0.63
2018-12-23T00:54:22.154Z,1.37
2018-12-23T00:56:49.614Z,1.45
2018-12-23T00:59:17.067Z,0.90
2018-12-23T01:01:44.530Z,1.10
2018-12-23T01:04:11.980Z,0.80
2018-12-23T01:06:39.433Z,1.00
2018-12-23T01:09:07.247Z,1.12
2018-12-23T01:11:34.703Z,1.17
2018-12-23T01:14:02.146Z,0.93
2018-12-23T01:16:29.587Z,0.90
2018-12-23T01:18:57.052Z,0.88
2018-12-23T01:21:24.488Z,0.90
2018-12-23T01:23:51.955Z,1.37
2018-12-23T01:26:19.411Z,1.07
2018-12-23T01:28:47.321Z,1.10
2018-12-23T01:31:14.766Z,0.78
2018-12-23T01:33:42.210Z,1.20
2018-12-23T01:36:09.671Z,1.30
2018-12-23T01:38:37.110Z,1.00
2018-12-23T01:41:04.649Z,0.90
2018-12-23T01:43:32.081Z,1.20
2018-12-23T01:45:59.542Z,1.10
2018-12-23T01:48:27.015Z,0.80
2018-12-23T01:50:54.473Z,1.03
2018-12-23T01:53:21.917Z,1.25
2018-12-23T01:55:49.391Z,0.90
2018-12-23T01:58:16.911Z,0.90
2018-12-23T02:00:44.417Z,1.07
2018-12-23T02:03:11.865Z,1.30
2018-12-23T02:05:46.041Z,1.20
2018-12-23T02:08:08.781Z,1.23
2018-12-23T02:10:36.231Z,1.00
2018-12-23T02:13:03.806Z,0.93
2018-12-23T02:15:31.359Z,1.10
2018-12-23T02:17:58.826Z,1.80
2018-12-23T02:20:26.678Z,0.83
2018-12-23T02:22:54.144Z,0.80
2018-12-23T02:25:21.597Z,0.80
2018-12-23T02:27:49.097Z,1.30
2018-12-23T02:30:16.540Z,0.83
2018-12-23T02:32:44.099Z,1.10
2018-12-23T02:35:11.563Z,1.40
2018-12-23T02:37:39.008Z,0.80
2018-12-23T02:40:06.510Z,1.37
2018-12-23T02:42:34.032Z,0.83
2018-12-23T02:45:01.519Z,1.35
2018-12-23T02:47:29.062Z,1.00
2018-12-23T02:49:56.560Z,1.27
2018-12-23T02:52:24.085Z,0.88
2018-12-23T02:54:51.533Z,0.80
2018-12-23T02:57:19.709Z,0.80
2018-12-23T02:59:47.143Z,1.00
2018-12-23T03:02:14.597Z,1.23
2018-12-23T03:04:42.047Z,1.00
2018-12-23T03:07:09.514Z,0.80
2018-12-23T03:09:36.962Z,0.70
2018-12-23T03:12:04.423Z,1.03
2018-12-23T03:14:32.086Z,0.70
2018-12-23T03:16:59.598Z,1.03
2018-12-23T03:19:27.042Z,0.93
2018-12-23T03:21:54.602Z,0.80
2018-12-23T03:24:22.151Z,1.50
2018-12-23T03:26:49.596Z,1.00
2018-12-23T03:29:17.070Z,1.20
2018-12-23T03:31:44.523Z,1.30
2018-12-23T03:34:11.979Z,0.97
2018-12-23T03:36:39.422Z,1.20
2018-12-23T03:39:06.926Z,1.60
2018-12-23T03:41:34.374Z,0.93
2018-12-23T03:44:01.817Z,1.20
2018-12-23T03:46:29.385Z,1.00
2018-12-23T03:48:57.324Z,1.67
2018-12-23T03:51:25.770Z,1.37
2018-12-23T03:53:53.310Z,1.07
2018-12-23T03:56:20.762Z,0.97
2018-12-23T03:58:48.218Z,1.10
2018-12-23T04:01:15.762Z,0.80
2018-12-23T04:03:43.201Z,1.07
2018-12-23T04:06:10.657Z,0.90
2018-12-23T04:08:38.102Z,1.20
2018-12-23T04:11:05.597Z,0.95
2018-12-23T04:13:33.053Z,1.23
2018-12-23T04:16:00.585Z,1.25
2018-12-23T04:18:28.517Z,1.10
2018-12-23T04:20:55.960Z,1.00
2018-12-23T04:23:23.408Z,1.10
2018-12-23T04:25:50.857Z,1.57
2018-12-23T04:28:18.317Z,1.43
2018-12-23T04:30:45.771Z,1.30
2018-12-23T04:33:13.233Z,0.80
2018-12-23T04:35:40.683Z,1.27
2018-12-23T04:38:08.145Z,1.20
2018-12-23T04:40:35.586Z,1.00
2018-12-23T04:43:03.031Z,1.20
2018-12-23T04:45:30.494Z,1.17
2018-12-23T04:47:57.942Z,1.30
2018-12-23T04:50:25.394Z,1.40
2018-12-23T04:52:52.831Z,1.60
2018-12-23T04:55:20.291Z,1.30
2018-12-23T04:57:47.741Z,1.82
2018-12-23T05:00:15.189Z,1.40
2018-12-23T05:02:42.665Z,1.10
2018-12-23T05:05:10.111Z,1.20
2018-12-23T05:07:37.577Z,0.90
2018-12-23T05:10:05.023Z,1.20
2018-12-23T05:12:32.485Z,0.93
2018-12-23T05:14:59.947Z,1.43
2018-12-23T05:17:27.406Z,1.40
2018-12-23T05:19:54.850Z,1.60
2018-12-23T05:22:22.312Z,1.13
2018-12-23T05:24:49.769Z,1.60
2018-12-23T05:27:17.228Z,1.17
2018-12-23T05:29:44.672Z,1.57
2018-12-23T05:32:12.113Z,1.00
2018-12-23T05:34:39.571Z,1.20
2018-12-23T05:37:07.020Z,1.57
2018-12-23T05:39:34.490Z,0.80
2018-12-23T05:42:01.931Z,1.30
2018-12-23T05:44:29.402Z,1.63
2018-12-23T05:46:56.849Z,2.02
2018-12-23T05:49:24.310Z,0.97
2018-12-23T05:51:51.753Z,1.42
2018-12-23T05:54:19.227Z,1.13
2018-12-23T05:56:46.669Z,1.50
2018-12-23T05:59:14.129Z,1.47
2018-12-23T06:01:41.581Z,1.30
2018-12-23T06:04:09.022Z,1.53
2018-12-23T06:06:36.486Z,1.70
2018-12-23T06:09:05.921Z,2.03
2018-12-23T06:11:33.381Z,0.90
2018-12-23T06:14:00.818Z,1.00
2018-12-23T06:16:28.304Z,1.73
2018-12-23T06:18:55.841Z,1.80
2018-12-23T06:21:23.320Z,1.53
2018-12-23T06:23:50.768Z,2.80
2018-12-23T06:26:18.231Z,2.20
2018-12-23T06:28:45.685Z,1.30
2018-12-23T06:31:13.146Z,1.70
2018-12-23T06:33:40.664Z,1.37
2018-12-23T06:36:08.104Z,1.80
2018-12-23T06:38:35.565Z,1.50
2018-12-23T06:41:03.015Z,1.87
2018-12-23T06:43:30.462Z,1.33
2018-12-23T06:45:57.909Z,1.87
2018-12-23T06:48:25.785Z,1.33
2018-12-23T06:50:53.233Z,1.45
2018-12-23T06:53:20.680Z,1.80
2018-12-23T06:55:48.122Z,1.60
2018-12-23T06:58:15.562Z,1.47
2018-12-23T07:00:43.038Z,2.00
2018-12-23T07:03:10.495Z,1.83
2018-12-23T07:05:37.968Z,2.00
2018-12-23T07:08:05.410Z,1.62
2018-12-23T07:10:32.875Z,1.27
2018-12-23T07:13:00.322Z,1.37
2018-12-23T07:15:27.779Z,1.77
2018-12-23T07:17:55.234Z,1.40
2018-12-23T07:20:23.020Z,1.83
2018-12-23T07:22:50.490Z,1.30
2018-12-23T07:25:17.945Z,1.77
2018-12-23T07:27:45.408Z,1.40
2018-12-23T07:30:12.852Z,1.37
2018-12-23T07:32:40.301Z,1.40
2018-12-23T07:35:07.759Z,1.27
2018-12-23T07:37:35.276Z,1.67
2018-12-23T07:40:02.734Z,1.73
2018-12-23T07:42:30.194Z,1.70
2018-12-23T07:44:57.640Z,1.92
2018-12-23T07:47:25.114Z,1.50
2018-12-23T07:49:53.377Z,2.58
2018-12-23T07:52:20.831Z,1.60
2018-12-23T07:54:48.286Z,2.13
2018-12-23T07:57:15.725Z,2.17
2018-12-23T07:59:43.197Z,2.40
2018-12-23T08:02:10.638Z,1.93
2018-12-23T08:04:38.301Z,1.80
2018-12-23T08:07:05.756Z,1.50
2018-12-23T08:09:33.222Z,1.77
2018-12-23T08:12:00.658Z,2.03
2018-12-23T08:14:28.112Z,1.33
2018-12-23T08:16:56.151Z,1.85
2018-12-23T08:19:23.596Z,1.40
2018-12-23T08:21:51.059Z,1.37
2018-12-23T08:24:18.497Z,1.47
2018-12-23T08:26:45.965Z,1.13
2018-12-23T08:29:13.511Z,0.90
2018-12-23T08:31:41.090Z,1.10
2018-12-23T08:34:08.524Z,1.33
2018-12-23T08:36:35.977Z,2.53
2018-12-23T08:39:05.205Z,1.40
2018-12-23T08:41:33.128Z,2.00
2018-12-23T08:44:00.733Z,1.80
2018-12-23T08:46:28.171Z,1.47
2018-12-23T08:48:55.642Z,1.50
2018-12-23T08:51:23.085Z,2.00
2018-12-23T08:53:50.537Z,1.40
2018-12-23T08:56:17.993Z,1.70
2018-12-23T08:58:45.457Z,2.00
2018-12-23T09:01:12.905Z,1.33
2018-12-23T09:03:40.634Z,1.20
2018-12-23T09:06:08.073Z,1.50
2018-12-23T09:08:35.513Z,1.57
2018-12-23T09:11:02.974Z,1.40
2018-12-23T09:13:30.420Z,1.37
2018-12-23T09:15:57.879Z,2.00
2018-12-23T09:18:25.335Z,1.80
2018-12-23T09:20:53.042Z,1.47
2018-12-23T09:23:20.483Z,1.60
2018-12-23T09:25:47.929Z,1.53
2018-12-23T09:28:15.401Z,1.77
2018-12-23T09:30:42.837Z,2.00
2018-12-23T09:33:10.296Z,2.20
2018-12-23T09:35:37.745Z,1.63
2018-12-23T09:38:05.286Z,2.57
2018-12-23T09:40:32.725Z,3.10
2018-12-23T09:43:00.192Z,2.35
2018-12-23T09:45:27.647Z,2.67
2018-12-23T09:47:55.116Z,2.87
2018-12-23T09:50:22.558Z,2.83
2018-12-23T09:52:49.997Z,2.60
2018-12-23T09:55:17.458Z,2.10
2018-12-23T09:57:45.005Z,2.20
2018-12-23T10:00:12.466Z,2.62
2018-12-23T10:02:39.915Z,2.70
2018-12-23T10:05:07.734Z,2.03
2018-12-23T10:07:35.474Z,1.80
2018-12-23T10:10:04.449Z,2.23
2018-12-23T10:12:32.996Z,2.03
2018-12-23T10:15:00.487Z,1.70
2018-12-23T10:17:27.950Z,1.63
2018-12-23T10:19:55.406Z,2.27
2018-12-23T10:22:22.858Z,2.03
2018-12-23T10:24:50.319Z,2.33
2018-12-23T10:27:17.851Z,2.60
2018-12-23T10:29:45.297Z,2.73
2018-12-23T10:32:12.765Z,3.57
2018-12-23T10:34:40.213Z,2.67
2018-12-23T10:37:07.670Z,3.50
2018-12-23T10:39:35.123Z,2.80
2018-12-23T10:42:02.581Z,3.70
2018-12-23T10:44:30.022Z,2.93
2018-12-23T10:46:57.497Z,3.93
2018-12-23T10:49:24.939Z,2.93
2018-12-23T10:51:52.757Z,3.50
2018-12-23T10:54:20.211Z,3.93
2018-12-23T10:56:47.670Z,4.27
2018-12-23T10:59:15.161Z,2.77
2018-12-23T11:01:42.616Z,4.37
2018-12-23T11:04:10.190Z,3.13
2018-12-23T11:06:37.636Z,3.57
2018-12-23T11:09:05.866Z,3.10
2018-12-23T11:11:33.384Z,4.47
2018-12-23T11:14:00.823Z,3.83
2018-12-23T11:16:28.278Z,3.20
2018-12-23T11:18:55.713Z,2.87
2018-12-23T11:21:23.174Z,3.45
2018-12-23T11:23:50.617Z,2.80
2018-12-23T11:26:18.078Z,2.87
2018-12-23T11:28:45.527Z,3.03
2018-12-23T11:31:12.998Z,3.43
2018-12-23T11:33:40.451Z,2.37
2018-12-23T11:36:07.892Z,3.17
2018-12-23T11:38:35.901Z,2.47
2018-12-23T11:41:03.694Z,2.07
2018-12-23T11:43:31.151Z,1.73
2018-12-23T11:45:58.594Z,1.90
2018-12-23T11:48:26.070Z,1.95
2018-12-23T11:50:53.518Z,1.93
2018-12-23T11:53:20.962Z,1.70
2018-12-23T11:55:48.420Z,1.53
2018-12-23T11:58:44.940Z,1.60
2018-12-23T12:01:13.354Z,1.57
2018-12-23T12:03:42.089Z,1.90
2018-12-23T12:06:10.533Z,1.47
2018-12-23T12:11:26.271Z,1.73
2018-12-23T12:13:54.680Z,1.30
2018-12-23T12:16:23.112Z,1.57
2018-12-23T12:18:51.523Z,1.40
2018-12-23T12:24:13.593Z,2.27
2018-12-23T12:26:42.028Z,1.90
2018-12-23T12:29:11.013Z,1.27
2018-12-23T12:31:40.594Z,1.43
2018-12-23T12:34:09.015Z,1.40
2018-12-23T12:36:37.443Z,1.07
2018-12-23T12:45:12.794Z,1.53
2018-12-23T12:48:00.594Z,1.12
2018-12-23T12:50:29.359Z,2.35
2018-12-23T12:52:58.145Z,1.50
2018-12-23T12:55:26.562Z,1.47
2018-12-23T12:57:54.975Z,1.73
2018-12-23T13:00:42.777Z,2.15
2018-12-23T13:03:11.192Z,2.00
2018-12-23T13:05:39.625Z,1.60
2018-12-23T13:08:08.038Z,1.60
2018-12-23T13:10:36.472Z,2.20
2018-12-23T13:13:24.328Z,1.65
2018-12-23T13:15:52.852Z,1.80
2018-12-23T13:18:21.616Z,1.90
2018-12-23T13:21:09.157Z,2.13
2018-12-23T13:23:37.572Z,2.80
2018-12-23T13:26:06.003Z,2.70
2018-12-23T13:28:34.427Z,2.85
2018-12-23T13:31:02.862Z,2.80
2018-12-23T13:33:31.286Z,2.20
2018-12-23T13:36:19.088Z,2.22
2018-12-23T13:38:47.580Z,2.33
2018-12-23T13:41:56.398Z,2.80
2018-12-23T13:45:03.523Z,1.90
2018-12-23T13:48:11.989Z,2.37
2018-12-23T13:51:19.152Z,2.40
2018-12-23T13:54:26.291Z,2.17
2018-12-23T13:57:34.830Z,2.30
2018-12-23T14:03:55.776Z,1.93
2018-12-23T14:07:03.040Z,3.10
2018-12-23T14:10:10.187Z,2.45
2018-12-23T14:12:38.628Z,2.42
2018-12-23T14:15:07.110Z,2.93
2018-12-23T14:17:35.520Z,2.37
2018-12-23T14:22:58.855Z,1.43
2018-12-23T14:28:15.003Z,2.10
2018-12-23T14:30:43.405Z,2.85
2018-12-23T14:33:11.822Z,2.57
2018-12-23T14:35:40.551Z,1.47
2018-12-23T14:38:08.964Z,2.10
2018-12-23T14:40:37.391Z,1.90
2018-12-23T14:43:05.808Z,2.10
2018-12-23T14:45:34.243Z,2.13
2018-12-23T14:48:22.021Z,2.23
2018-12-23T14:50:50.460Z,2.30
2018-12-23T14:53:38.243Z,2.57
2018-12-23T14:56:06.676Z,1.93
2018-12-23T14:58:54.613Z,1.67
2018-12-23T15:01:42.414Z,1.93
2018-12-23T15:04:10.829Z,2.47
2018-12-23T15:06:39.262Z,2.50
2018-12-23T15:09:07.682Z,2.27
2018-12-23T15:11:36.467Z,2.37
2018-12-23T15:14:24.343Z,2.13
2018-12-23T15:20:13.342Z,2.33
2018-12-23T15:22:41.800Z,2.25
2018-12-23T15:25:29.646Z,2.70
2018-12-23T15:30:31.958Z,9.87
2018-12-23T15:33:00.458Z,3.77
2018-12-23T15:38:03.093Z,3.27
2018-12-23T15:40:51.024Z,3.37
2018-12-23T15:43:19.472Z,3.83
2018-12-23T15:46:07.257Z,4.72
2018-12-23T15:48:54.807Z,3.70
2018-12-23T15:57:17.226Z,3.30
2018-12-23T16:02:40.125Z,3.70
2018-12-23T16:07:43.016Z,5.37
2018-12-23T16:12:45.714Z,4.17
2018-12-23T16:15:14.526Z,2.97
2018-12-23T16:17:42.970Z,4.50
2018-12-23T16:23:25.512Z,4.50
2018-12-23T16:25:54.345Z,3.17
2018-12-23T16:28:22.777Z,4.40
2018-12-23T16:30:51.203Z,3.72
2018-12-23T16:33:19.633Z,3.67
2018-12-23T16:35:48.044Z,3.08
2018-12-23T16:38:16.484Z,3.73
2018-12-23T16:40:44.891Z,2.40
2018-12-23T16:43:13.628Z,2.00
2018-12-23T16:46:01.525Z,2.13
2018-12-23T16:48:30.000Z,1.10
2018-12-23T16:50:58.410Z,1.82
2018-12-23T16:53:26.827Z,1.80
2018-12-23T16:56:14.695Z,1.30
2018-12-23T16:58:43.119Z,2.65
2018-12-23T17:01:11.554Z,2.07
2018-12-23T17:03:59.076Z,2.08
2018-12-23T17:06:27.588Z,2.07
2018-12-23T17:08:56.003Z,2.12
2018-12-23T17:11:24.435Z,1.30
2018-12-23T17:13:52.857Z,1.60
2018-12-23T17:19:14.861Z,1.80
2018-12-23T17:21:44.756Z,2.02
2018-12-23T17:24:32.547Z,2.30
2018-12-23T17:27:00.987Z,2.70
2018-12-23T17:29:29.400Z,1.75
2018-12-23T17:31:57.829Z,2.57
2018-12-23T17:34:26.248Z,5.60
2018-12-23T17:36:54.690Z,1.87
2018-12-23T17:39:23.105Z,2.57
2018-12-23T17:42:11.335Z,1.97
2018-12-23T17:44:39.747Z,2.20
2018-12-23T17:47:08.218Z,3.33
2018-12-23T17:52:32.100Z,2.20
2018-12-23T17:55:00.543Z,2.00
2018-12-23T17:57:28.955Z,3.33
2018-12-23T17:59:57.390Z,1.77
2018-12-23T18:05:13.144Z,1.70
2018-12-23T18:07:41.546Z,1.73
2018-12-23T18:10:09.983Z,1.70
2018-12-23T18:12:59.313Z,2.37
2018-12-23T18:15:46.876Z,2.17
2018-12-23T18:18:15.279Z,2.20
2018-12-23T18:20:43.699Z,1.87
2018-12-23T18:23:31.506Z,2.50
2018-12-23T18:25:59.961Z,2.40
2018-12-23T18:28:28.400Z,2.62
2018-12-23T18:30:56.820Z,3.00
2018-12-23T18:33:25.257Z,2.80
2018-12-23T18:35:53.744Z,2.57
2018-12-23T18:38:22.189Z,3.00
2018-12-23T18:41:10.053Z,2.60
2018-12-23T18:43:38.854Z,2.60
2018-12-23T18:46:07.675Z,3.13
2018-12-23T18:48:36.124Z,3.67
2018-12-23T18:51:04.536Z,3.67
2018-12-23T18:53:52.166Z,8.00
2018-12-23T18:59:21.422Z,6.40
2018-12-23T19:02:29.904Z,3.33
2018-12-23T19:04:58.323Z,5.50
2018-12-23T19:07:27.201Z,4.07
2018-12-23T19:13:41.205Z,4.40
2018-12-23T19:19:54.474Z,6.07
2018-12-23T19:26:15.494Z,4.20
2018-12-23T19:29:23.952Z,4.37
2018-12-23T19:32:31.301Z,4.00
2018-12-23T19:35:38.443Z,4.15
2018-12-23T19:42:00.100Z,5.57
2018-12-23T19:48:07.991Z,15.67
2018-12-23T20:00:16.960Z,5.83
2018-12-23T20:03:24.089Z,4.70
2018-12-23T20:06:31.251Z,4.42
2018-12-23T20:12:52.561Z,6.17
2018-12-23T20:19:01.124Z,6.03
2018-12-23T20:22:00.494Z,5.43
2018-12-23T20:25:00.149Z,6.07
2018-12-23T20:28:07.240Z,7.20
2018-12-23T20:37:15.652Z,5.47
2018-12-23T20:40:22.827Z,6.10
2018-12-23T20:43:29.952Z,6.83
2018-12-23T20:46:38.452Z,5.77
2018-12-23T20:49:45.860Z,5.33
2018-12-23T20:52:54.333Z,6.63
2018-12-23T20:56:02.798Z,7.30
2018-12-23T20:59:03.739Z,7.47
2018-12-23T21:02:10.921Z,8.80
2018-12-23T21:14:20.110Z,6.50
2018-12-23T21:17:19.737Z,6.60
2018-12-23T21:20:26.956Z,6.00
2018-12-23T21:23:34.104Z,7.90
2018-12-23T21:26:42.279Z,8.03
2018-12-23T21:29:49.434Z,7.15
2018-12-23T21:32:56.571Z,7.40
2018-12-23T21:36:05.513Z,7.53
2018-12-23T21:39:12.642Z,10.07
2018-12-23T21:42:19.813Z,9.33
2018-12-23T21:45:26.940Z,8.97
2018-12-23T21:48:35.412Z,9.20
2018-12-23T21:54:56.909Z,9.47
2018-12-23T21:58:05.376Z,9.10
2018-12-23T22:04:26.037Z,8.47
2018-12-23T22:07:33.172Z,8.95
2018-12-23T22:10:41.700Z,9.50
2018-12-23T22:13:31.032Z,10.50
2018-12-23T22:15:59.470Z,9.47
2018-12-23T22:18:27.888Z,8.57
2018-12-23T22:20:56.422Z,9.40
2018-12-23T22:23:44.214Z,12.90
2018-12-23T22:26:25.160Z,10.40
2018-12-23T22:28:53.569Z,7.67
2018-12-23T22:31:22.363Z,8.90
2018-12-23T22:33:50.772Z,7.33
2018-12-23T22:36:19.211Z,8.77
2018-12-23T22:38:47.631Z,9.47
2018-12-23T22:41:41.293Z,8.50
2018-12-23T22:44:25.006Z,8.83
2018-12-23T22:46:53.435Z,9.73
2018-12-23T22:49:21.851Z,8.30
2018-12-23T22:51:50.287Z,8.00
2018-12-23T22:54:18.700Z,7.40
2018-12-23T22:56:47.454Z,8.48
2018-12-23T22:59:15.871Z,8.17
2018-12-23T23:01:44.380Z,8.73
2018-12-23T23:04:32.242Z,8.25
2018-12-23T23:07:00.689Z,6.97
2018-12-23T23:09:29.100Z,8.67
2018-12-23T23:11:57.532Z,7.80
2018-12-23T23:14:45.321Z,8.18
2018-12-23T23:17:13.753Z,9.07
2018-12-23T23:19:42.169Z,10.10
2018-12-23T23:22:29.980Z,9.37
2018-12-23T23:24:58.406Z,8.40
2018-12-23T23:27:26.846Z,9.93
2018-12-23T23:29:55.260Z,9.47
2018-12-23T23:32:23.705Z,9.43
2018-12-23T23:34:52.125Z,10.93
2018-12-23T23:37:20.563Z,11.10
2018-12-23T23:39:48.984Z,10.90
2018-12-23T23:42:17.431Z,11.07
2018-12-23T23:44:46.200Z,13.73
2018-12-23T23:47:14.637Z,11.77
2018-12-23T23:49:43.059Z,11.93
2018-12-23T23:52:11.855Z,11.83
2018-12-23T23:54:40.274Z,11.47
2018-12-23T23:57:08.712Z,12.53
2018-12-23T23:59:37.146Z,13.28
